2PS0 weather

Public forecast

Using degrees Fahrenheit for public forecast. Weather courtesy of forecast.io.

Closest aviation weather report (METAR) to Rotelle Heliport

Closest report is Wings Field, 3.9 nm (7.3 km) SSE. Retrieved 2020/08/15 04:35 UTC (10 minutes ago):

KLOM 150435Z AUTO 00000KT 10SM CLR 19/19 A3000 RMK AO2 T01900186

Closest aviation forecast (TAF) to Rotelle Heliport

Closest forecast is Northeast Philadelphia Airport, 15.0 nm (27.7 km) ESE. Retrieved 2020-08-15 00:24 UTC (4 hours ago):

TAF KPNE 142321Z 1500/1524 08008KT P6SM FEW060 FM150400 05005KT P6SM SCT250 FM151400 08010KT P6SM BKN250 FM151700 08010KT P6SM SCT050 BKN200 FM152300 11008KT P6SM BKN100